createdAt,value
2023-04-28T00:01:16.217Z,1.00
2023-04-28T00:03:43.107Z,0.50
2023-04-28T00:06:10.751Z,0.00
2023-04-28T00:08:38.360Z,1.00
2023-04-28T00:11:09.070Z,1.00
2023-04-28T00:13:36.783Z,0.00
2023-04-28T00:16:03.675Z,1.00
2023-04-28T00:18:30.490Z,1.00
2023-04-28T00:20:57.184Z,1.00
2023-04-28T00:23:23.994Z,1.00
2023-04-28T00:25:51.920Z,1.00
2023-04-28T00:28:32.902Z,1.00
2023-04-28T00:30:59.806Z,1.00
2023-04-28T00:33:26.397Z,1.00
2023-04-28T00:36:00.482Z,1.00
2023-04-28T00:38:27.294Z,1.00
2023-04-28T00:40:54.067Z,0.00
2023-04-28T00:43:21.019Z,0.00
2023-04-28T00:45:51.360Z,1.00
2023-04-28T00:48:18.371Z,1.00
2023-04-28T00:50:45.670Z,1.00
2023-04-28T00:53:12.437Z,0.00
2023-04-28T00:55:39.056Z,1.00
2023-04-28T00:58:06.305Z,1.00
2023-04-28T01:00:33.220Z,1.00
2023-04-28T01:03:00.109Z,1.00
2023-04-28T01:05:28.302Z,1.00
2023-04-28T01:07:56.285Z,1.00
2023-04-28T01:10:23.026Z,1.00
2023-04-28T01:12:49.696Z,1.00
2023-04-28T01:15:17.776Z,1.00
2023-04-28T01:17:47.976Z,0.00
2023-04-28T01:20:15.572Z,1.00
2023-04-28T01:22:42.437Z,0.33
2023-04-28T01:25:09.246Z,1.00
2023-04-28T01:27:36.186Z,1.00
2023-04-28T01:30:03.105Z,1.00
2023-04-28T01:32:29.833Z,0.50
2023-04-28T01:34:56.920Z,0.00
2023-04-28T01:37:23.952Z,1.00
2023-04-28T01:39:50.522Z,1.00
2023-04-28T01:42:18.427Z,0.00
2023-04-28T01:44:45.356Z,1.00
2023-04-28T01:47:12.019Z,1.00
2023-04-28T01:49:38.758Z,0.00
2023-04-28T01:52:07.961Z,1.00
2023-04-28T01:54:35.892Z,1.00
2023-04-28T01:57:03.083Z,1.00
2023-04-28T01:59:30.280Z,1.00
2023-04-28T02:01:57.068Z,1.00
2023-04-28T02:04:23.785Z,1.00
2023-04-28T02:06:50.262Z,0.00
2023-04-28T02:09:16.944Z,1.00
2023-04-28T02:11:43.811Z,1.00
2023-04-28T02:14:10.964Z,1.00
2023-04-28T02:16:38.008Z,1.00
2023-04-28T02:19:04.711Z,1.00
2023-04-28T02:21:31.451Z,0.00
2023-04-28T02:23:58.264Z,1.00
2023-04-28T02:26:25.352Z,0.00
2023-04-28T02:28:51.978Z,0.00
2023-04-28T02:31:18.820Z,1.00
2023-04-28T02:33:45.919Z,1.00
2023-04-28T02:36:12.775Z,1.00
2023-04-28T02:38:41.072Z,0.00
2023-04-28T02:41:08.570Z,1.00
2023-04-28T02:43:36.536Z,0.00
2023-04-28T02:46:04.229Z,1.00
2023-04-28T02:48:30.988Z,0.67
2023-04-28T02:50:57.816Z,1.00
2023-04-28T02:53:24.950Z,1.00
2023-04-28T02:55:51.570Z,1.00
2023-04-28T02:58:18.631Z,1.50
2023-04-28T03:00:46.215Z,0.00
2023-04-28T03:03:13.289Z,1.00
2023-04-28T03:05:40.253Z,1.00
2023-04-28T03:08:06.974Z,1.00
2023-04-28T03:10:33.498Z,1.00
2023-04-28T03:13:00.927Z,0.00
2023-04-28T03:15:27.541Z,0.00
2023-04-28T03:17:54.204Z,0.00
2023-04-28T03:20:20.917Z,0.00
2023-04-28T03:22:47.536Z,0.00
2023-04-28T03:25:14.218Z,0.00
2023-04-28T03:27:47.005Z,1.00
2023-04-28T03:30:13.907Z,1.00
2023-04-28T03:32:41.082Z,1.00
2023-04-28T03:35:08.064Z,0.00
2023-04-28T03:37:35.060Z,0.33
2023-04-28T03:40:03.375Z,1.00
2023-04-28T03:42:35.308Z,0.00
2023-04-28T03:45:10.384Z,0.00
2023-04-28T03:47:37.263Z,1.00
2023-04-28T03:50:04.992Z,1.00
2023-04-28T03:52:31.885Z,1.00
2023-04-28T03:54:58.423Z,1.00
2023-04-28T03:57:28.062Z,0.00
2023-04-28T03:59:54.620Z,0.75
2023-04-28T04:02:21.447Z,1.00
2023-04-28T04:04:48.556Z,0.50
2023-04-28T04:07:15.404Z,0.00
2023-04-28T04:09:42.294Z,1.00
2023-04-28T04:12:09.472Z,0.00
2023-04-28T04:14:36.705Z,0.00
2023-04-28T04:17:03.383Z,1.00
2023-04-28T04:19:30.189Z,1.00
2023-04-28T04:21:57.105Z,1.00
2023-04-28T04:24:24.167Z,1.00
2023-04-28T04:26:50.722Z,1.00
2023-04-28T04:29:43.516Z,1.00
2023-04-28T04:32:13.533Z,0.00
2023-04-28T04:34:40.874Z,1.00
2023-04-28T04:37:09.008Z,1.00
2023-04-28T04:39:39.103Z,1.00
2023-04-28T04:42:22.624Z,1.00
2023-04-28T04:45:23.288Z,1.00
2023-04-28T04:47:50.895Z,0.00
2023-04-28T04:50:17.898Z,1.00
2023-04-28T04:52:45.048Z,1.00
2023-04-28T04:55:11.693Z,1.00
2023-04-28T04:57:40.203Z,0.00
2023-04-28T05:00:38.389Z,1.00
2023-04-28T05:03:05.750Z,1.00
2023-04-28T05:05:32.667Z,1.00
2023-04-28T05:08:06.919Z,1.00
2023-04-28T05:10:34.547Z,1.00
2023-04-28T05:13:01.811Z,1.00
2023-04-28T05:15:29.048Z,1.00
2023-04-28T05:18:14.793Z,1.00
2023-04-28T05:20:41.637Z,1.75
2023-04-28T05:23:08.869Z,1.00
2023-04-28T05:25:35.779Z,1.00
2023-04-28T05:28:06.861Z,1.00
2023-04-28T05:30:33.755Z,1.00
2023-04-28T05:33:00.507Z,2.00
2023-04-28T05:35:28.240Z,2.00
2023-04-28T05:37:55.378Z,2.00
2023-04-28T05:40:22.525Z,2.00
2023-04-28T05:42:49.454Z,1.00
2023-04-28T05:45:16.154Z,2.00
2023-04-28T05:47:43.170Z,2.00
2023-04-28T05:50:10.560Z,1.00
2023-04-28T05:52:37.347Z,2.00
2023-04-28T05:55:04.339Z,1.00
2023-04-28T05:57:33.911Z,1.25
2023-04-28T06:00:09.585Z,1.00
2023-04-28T06:02:40.467Z,1.00
2023-04-28T06:05:08.529Z,2.00
2023-04-28T06:07:35.526Z,0.00
2023-04-28T06:10:02.205Z,1.33
2023-04-28T06:12:28.971Z,1.00
2023-04-28T06:14:56.218Z,0.00
2023-04-28T06:17:25.982Z,2.00
2023-04-28T06:19:56.070Z,1.00
2023-04-28T06:22:24.567Z,2.00
2023-04-28T06:24:51.588Z,1.00
2023-04-28T06:27:22.756Z,2.00
2023-04-28T06:29:49.404Z,1.00
2023-04-28T06:32:16.212Z,1.00
2023-04-28T06:34:42.985Z,1.00
2023-04-28T06:37:09.591Z,1.00
2023-04-28T06:39:36.446Z,1.00
2023-04-28T06:42:03.816Z,1.00
2023-04-28T06:44:34.783Z,1.00
2023-04-28T06:47:03.018Z,1.00
2023-04-28T06:49:30.056Z,2.00
2023-04-28T06:52:00.343Z,1.00
2023-04-28T06:54:30.327Z,1.00
2023-04-28T06:56:57.478Z,1.00
2023-04-28T06:59:24.667Z,1.00
2023-04-28T07:01:51.355Z,1.00
2023-04-28T07:04:18.598Z,1.00
2023-04-28T07:06:45.822Z,0.00
2023-04-28T07:09:12.567Z,1.00
2023-04-28T07:11:39.481Z,2.00
2023-04-28T07:14:07.590Z,1.00
2023-04-28T07:16:35.730Z,1.00
2023-04-28T07:19:02.392Z,1.00
2023-04-28T07:21:29.466Z,8.50
2023-04-28T07:23:56.622Z,6.50
2023-04-28T07:26:23.521Z,7.33
2023-04-28T07:28:51.070Z,6.67
2023-04-28T07:31:17.784Z,8.00
2023-04-28T07:33:44.823Z,6.00
2023-04-28T07:36:11.722Z,6.00
2023-04-28T07:38:38.458Z,5.75
2023-04-28T07:41:06.732Z,6.00
2023-04-28T07:43:35.702Z,6.00
2023-04-28T07:46:02.517Z,5.00
2023-04-28T07:48:29.352Z,4.00
2023-04-28T07:50:56.072Z,4.00
2023-04-28T07:53:22.790Z,3.00
2023-04-28T07:55:49.476Z,4.00
2023-04-28T07:58:16.395Z,5.25
2023-04-28T08:00:43.113Z,4.50
2023-04-28T08:03:10.421Z,4.00
2023-04-28T08:05:38.485Z,3.00
2023-04-28T08:08:05.387Z,4.67
2023-04-28T08:10:32.541Z,3.00
2023-04-28T08:12:59.444Z,4.00
2023-04-28T08:15:26.979Z,4.00
2023-04-28T08:17:53.674Z,3.00
2023-04-28T08:20:23.164Z,2.00
2023-04-28T08:22:51.536Z,2.00
2023-04-28T08:25:18.372Z,2.00
2023-04-28T08:27:45.319Z,2.00
2023-04-28T08:30:12.231Z,3.00
2023-04-28T08:32:38.986Z,0.75
2023-04-28T08:35:06.577Z,3.00
2023-04-28T08:37:33.675Z,2.00
2023-04-28T08:40:08.724Z,2.00
2023-04-28T08:42:36.826Z,2.00
2023-04-28T08:45:04.844Z,2.00
2023-04-28T08:47:33.384Z,1.00
2023-04-28T08:50:04.747Z,1.50
2023-04-28T08:52:31.717Z,1.00
2023-04-28T08:55:06.115Z,1.00
2023-04-28T08:57:39.286Z,2.00
2023-04-28T09:00:07.549Z,1.00
2023-04-28T09:02:35.029Z,1.00
2023-04-28T09:05:02.821Z,1.00
2023-04-28T09:07:29.724Z,1.00
2023-04-28T09:10:21.633Z,0.75
2023-04-28T09:12:52.896Z,1.00
2023-04-28T09:15:33.877Z,1.00
2023-04-28T09:18:05.773Z,2.00
2023-04-28T09:20:33.557Z,1.00
2023-04-28T09:23:16.901Z,0.00
2023-04-28T09:26:02.957Z,1.00
2023-04-28T09:28:33.918Z,1.00
2023-04-28T09:31:00.840Z,1.00
2023-04-28T09:33:27.809Z,2.00
2023-04-28T09:35:54.535Z,1.00
2023-04-28T09:38:21.817Z,1.00
2023-04-28T09:40:51.264Z,0.00
2023-04-28T09:43:28.312Z,1.00
2023-04-28T09:45:55.954Z,1.00
2023-04-28T09:48:36.063Z,1.00
2023-04-28T09:51:05.558Z,2.00
2023-04-28T09:53:32.653Z,1.00
2023-04-28T09:56:00.941Z,1.00
2023-04-28T09:58:28.648Z,1.00
2023-04-28T10:00:57.328Z,2.00
2023-04-28T10:03:29.179Z,2.00
2023-04-28T10:05:57.644Z,1.00
2023-04-28T10:08:24.532Z,1.00
2023-04-28T10:10:54.909Z,3.00
2023-04-28T10:13:22.117Z,2.75
2023-04-28T10:15:49.580Z,2.00
2023-04-28T10:18:16.617Z,2.33
2023-04-28T10:20:45.356Z,2.00
2023-04-28T10:23:46.604Z,2.00
2023-04-28T10:26:13.944Z,3.00
2023-04-28T10:28:50.835Z,2.00
2023-04-28T10:31:20.435Z,4.00
2023-04-28T10:33:48.423Z,2.50
2023-04-28T10:36:50.336Z,2.00
2023-04-28T10:39:17.922Z,2.00
2023-04-28T10:41:48.536Z,3.00
2023-04-28T10:44:30.467Z,3.00
2023-04-28T10:47:03.661Z,1.75
2023-04-28T10:49:58.159Z,3.00
2023-04-28T10:52:34.820Z,1.00
2023-04-28T10:55:41.601Z,2.00
2023-04-28T10:58:29.886Z,2.67
2023-04-28T11:01:17.850Z,2.00
2023-04-28T11:03:53.734Z,3.00
2023-04-28T11:06:28.003Z,2.00
2023-04-28T11:09:01.522Z,2.00
2023-04-28T11:11:34.261Z,1.00
2023-04-28T11:14:19.021Z,3.00
2023-04-28T11:16:55.918Z,2.00
2023-04-28T11:19:24.058Z,3.00
2023-04-28T11:21:51.379Z,2.00
2023-04-28T11:24:18.048Z,3.33
2023-04-28T11:26:44.855Z,2.00
2023-04-28T11:29:11.957Z,2.00
2023-04-28T11:31:39.221Z,3.00
2023-04-28T11:34:07.148Z,2.00
2023-04-28T11:36:36.432Z,4.00
2023-04-28T11:39:08.061Z,2.00
2023-04-28T11:41:39.015Z,2.00
2023-04-28T11:44:09.457Z,2.00
2023-04-28T11:46:36.252Z,3.00
2023-04-28T11:49:05.157Z,3.00
2023-04-28T11:51:38.448Z,2.25
2023-04-28T11:54:07.029Z,3.00
2023-04-28T11:56:38.574Z,3.00
2023-04-28T11:59:08.166Z,3.00
2023-04-28T12:01:48.265Z,3.00
2023-04-28T12:04:29.951Z,2.00
2023-04-28T12:07:04.401Z,2.00
2023-04-28T12:09:31.578Z,2.25
2023-04-28T12:12:01.595Z,1.00
2023-04-28T12:14:28.678Z,2.00
2023-04-28T12:16:56.464Z,2.00
2023-04-28T12:19:23.403Z,2.00
2023-04-28T12:22:04.029Z,3.00
2023-04-28T12:24:30.976Z,3.00
2023-04-28T12:27:24.318Z,2.75
2023-04-28T12:29:51.108Z,2.00
2023-04-28T12:32:18.095Z,3.00
2023-04-28T12:34:45.853Z,1.00
2023-04-28T12:37:13.134Z,2.00
2023-04-28T12:39:40.758Z,2.00
2023-04-28T12:42:07.409Z,3.00
2023-04-28T12:44:35.211Z,2.50
2023-04-28T12:47:03.279Z,1.25
2023-04-28T12:49:30.189Z,2.00
2023-04-28T12:51:56.917Z,2.00
2023-04-28T12:54:23.630Z,1.25
2023-04-28T12:56:50.427Z,2.00
2023-04-28T12:59:17.178Z,2.00
2023-04-28T13:01:44.178Z,3.00
2023-04-28T13:04:12.213Z,1.00
2023-04-28T13:06:43.378Z,3.00
2023-04-28T13:09:11.603Z,3.00
2023-04-28T13:11:38.693Z,1.00
2023-04-28T13:14:05.689Z,2.00
2023-04-28T13:16:34.199Z,3.00
2023-04-28T13:19:01.580Z,2.00
2023-04-28T13:21:28.267Z,2.00
2023-04-28T13:23:55.594Z,2.00
2023-04-28T13:26:26.164Z,2.00
2023-04-28T13:28:52.833Z,1.25
2023-04-28T13:31:19.833Z,2.00
2023-04-28T13:33:46.708Z,2.00
2023-04-28T13:36:13.667Z,2.00
2023-04-28T13:38:40.590Z,2.00
2023-04-28T13:41:07.280Z,2.00
2023-04-28T13:43:33.862Z,1.00
2023-04-28T13:46:01.007Z,2.50
2023-04-28T13:48:28.565Z,2.00
2023-04-28T13:50:55.351Z,2.67
2023-04-28T13:53:22.375Z,2.00
2023-04-28T13:55:50.621Z,3.00
2023-04-28T13:58:17.335Z,2.00
2023-04-28T14:00:44.198Z,2.00
2023-04-28T14:03:11.580Z,2.00
2023-04-28T14:05:48.441Z,2.00
2023-04-28T14:08:18.744Z,2.00
2023-04-28T14:10:47.723Z,2.00
2023-04-28T14:13:14.807Z,2.00
2023-04-28T14:15:54.701Z,1.00
2023-04-28T14:18:24.291Z,2.00
2023-04-28T14:20:51.366Z,3.00
2023-04-28T14:23:18.351Z,2.00
2023-04-28T14:25:45.237Z,2.25
2023-04-28T14:28:12.264Z,1.00
2023-04-28T14:30:38.998Z,2.00
2023-04-28T14:33:06.275Z,2.00
2023-04-28T14:35:33.941Z,3.00
2023-04-28T14:38:00.819Z,2.00
2023-04-28T14:40:27.408Z,2.67
2023-04-28T14:42:54.080Z,2.00
2023-04-28T14:45:21.381Z,1.00
2023-04-28T14:47:48.099Z,2.00
2023-04-28T14:50:15.256Z,1.00
2023-04-28T14:52:42.289Z,1.00
2023-04-28T14:55:08.939Z,1.00
2023-04-28T14:57:37.247Z,2.00
2023-04-28T15:00:06.568Z,3.00
2023-04-28T15:02:33.796Z,2.00
2023-04-28T15:05:01.025Z,2.00
2023-04-28T15:07:30.733Z,1.00
2023-04-28T15:09:58.741Z,2.00
2023-04-28T15:12:25.722Z,2.00
2023-04-28T15:14:53.267Z,2.00
2023-04-28T15:17:21.538Z,1.50
2023-04-28T15:19:48.757Z,2.00
2023-04-28T15:22:15.330Z,1.25
2023-04-28T15:24:42.122Z,1.00
2023-04-28T15:27:08.873Z,2.00
2023-04-28T15:29:35.699Z,2.00
2023-04-28T15:32:02.446Z,2.00
2023-04-28T15:34:30.209Z,1.00
2023-04-28T15:36:57.033Z,1.00
2023-04-28T15:39:24.871Z,1.75
2023-04-28T15:41:52.447Z,1.00
2023-04-28T15:44:19.317Z,1.00
2023-04-28T15:46:46.103Z,1.00
2023-04-28T15:49:13.216Z,2.00
2023-04-28T15:51:39.864Z,2.00
2023-04-28T15:54:06.929Z,1.00
2023-04-28T15:56:33.746Z,1.00
2023-04-28T15:59:00.923Z,1.00
2023-04-28T16:01:27.964Z,2.00
2023-04-28T16:03:54.791Z,2.00
2023-04-28T16:06:22.036Z,2.00
2023-04-28T16:08:48.710Z,1.00
2023-04-28T16:11:18.752Z,2.00
2023-04-28T16:13:45.465Z,2.00
2023-04-28T16:16:12.437Z,2.00
2023-04-28T16:18:39.592Z,2.00
2023-04-28T16:21:06.413Z,2.00
2023-04-28T16:23:33.184Z,2.00
2023-04-28T16:26:00.190Z,2.00
2023-04-28T16:28:26.929Z,1.00
2023-04-28T16:30:53.506Z,2.00
2023-04-28T16:33:20.247Z,3.00
2023-04-28T16:35:55.127Z,2.00
2023-04-28T16:38:22.253Z,1.00
2023-04-28T16:40:50.061Z,1.75
2023-04-28T16:43:17.389Z,2.00
2023-04-28T16:45:44.178Z,1.67
2023-04-28T16:48:11.160Z,2.00
2023-04-28T16:50:40.941Z,1.25
2023-04-28T16:53:07.955Z,2.00
2023-04-28T16:55:35.940Z,3.00
2023-04-28T16:58:02.968Z,1.00
2023-04-28T17:00:30.430Z,2.00
2023-04-28T17:02:57.674Z,2.00
2023-04-28T17:05:24.829Z,2.00
2023-04-28T17:07:51.613Z,3.00
2023-04-28T17:10:18.428Z,1.00
2023-04-28T17:12:45.205Z,3.00
2023-04-28T17:15:16.628Z,3.00
2023-04-28T17:17:45.838Z,2.00
2023-04-28T17:20:16.118Z,2.00
2023-04-28T17:22:43.342Z,2.25
2023-04-28T17:25:11.357Z,2.00
2023-04-28T17:27:38.361Z,2.00
2023-04-28T17:30:13.739Z,2.00
2023-04-28T17:32:40.902Z,2.00
2023-04-28T17:35:08.252Z,1.75
2023-04-28T17:37:36.616Z,2.00
2023-04-28T17:40:04.008Z,1.50
2023-04-28T17:42:33.552Z,2.00
2023-04-28T17:45:00.777Z,2.00
2023-04-28T17:47:27.492Z,2.00
2023-04-28T17:49:54.307Z,1.25
2023-04-28T17:52:21.147Z,1.00
2023-04-28T17:54:48.038Z,1.00
2023-04-28T17:57:15.127Z,2.00
2023-04-28T17:59:42.441Z,1.00
2023-04-28T18:02:09.964Z,2.00
2023-04-28T18:04:37.421Z,2.00
2023-04-28T18:07:05.818Z,1.00
2023-04-28T18:09:33.005Z,2.00
2023-04-28T18:12:02.488Z,1.00
2023-04-28T18:14:29.658Z,2.00
2023-04-28T18:16:57.067Z,2.00
2023-04-28T18:19:27.292Z,2.33
2023-04-28T18:21:56.078Z,2.00
2023-04-28T18:24:23.721Z,2.00
2023-04-28T18:26:50.322Z,2.00
2023-04-28T18:29:18.324Z,2.00
2023-04-28T18:31:45.650Z,2.00
2023-04-28T18:34:12.683Z,2.00
2023-04-28T18:36:39.359Z,2.00
2023-04-28T18:39:08.726Z,1.25
2023-04-28T18:41:36.221Z,1.00
2023-04-28T18:44:03.797Z,3.00
2023-04-28T18:46:30.660Z,2.00
2023-04-28T18:48:57.517Z,3.00
2023-04-28T18:51:24.181Z,2.00
2023-04-28T18:53:50.797Z,2.00
2023-04-28T18:56:17.575Z,2.00
2023-04-28T18:58:45.122Z,1.00
2023-04-28T19:01:15.725Z,2.00
2023-04-28T19:03:43.144Z,1.00
2023-04-28T19:06:10.404Z,2.00
2023-04-28T19:08:40.842Z,2.00
2023-04-28T19:11:08.650Z,1.67
2023-04-28T19:13:36.145Z,2.00
2023-04-28T19:16:03.788Z,2.00
2023-04-28T19:18:30.786Z,2.00
2023-04-28T19:21:04.078Z,2.00
2023-04-28T19:23:31.114Z,2.00
2023-04-28T19:25:58.338Z,2.00
2023-04-28T19:28:25.726Z,3.00
2023-04-28T19:30:53.267Z,3.00
2023-04-28T19:33:20.409Z,2.50
2023-04-28T19:35:48.496Z,3.00
2023-04-28T19:38:17.940Z,2.00
2023-04-28T19:40:44.937Z,2.25
2023-04-28T19:43:12.036Z,0.50
2023-04-28T19:45:39.063Z,3.00
2023-04-28T19:48:06.375Z,2.00
2023-04-28T19:50:33.096Z,3.00
2023-04-28T19:52:59.694Z,2.00
2023-04-28T19:55:26.661Z,3.00
2023-04-28T19:57:55.197Z,3.00
2023-04-28T20:00:23.764Z,2.67
2023-04-28T20:02:50.889Z,2.67
2023-04-28T20:05:19.913Z,3.00
2023-04-28T20:07:47.221Z,1.00
2023-04-28T20:10:14.073Z,3.67
2023-04-28T20:12:41.026Z,2.00
2023-04-28T20:15:08.190Z,3.00
2023-04-28T20:17:35.201Z,2.50
2023-04-28T20:20:04.629Z,3.00
2023-04-28T20:22:31.685Z,3.00
2023-04-28T20:25:00.263Z,3.00
2023-04-28T20:27:27.436Z,3.00
2023-04-28T20:29:54.141Z,2.00
2023-04-28T20:32:20.936Z,2.00
2023-04-28T20:34:47.678Z,2.00
2023-04-28T20:37:14.684Z,3.00
2023-04-28T20:39:41.389Z,3.00
2023-04-28T20:42:08.483Z,4.00
2023-04-28T20:44:35.255Z,3.00
2023-04-28T20:47:02.267Z,3.00
2023-04-28T20:49:29.214Z,3.00
2023-04-28T20:52:05.743Z,1.75
2023-04-28T20:54:35.985Z,3.50
2023-04-28T20:57:08.615Z,3.00
2023-04-28T20:59:36.310Z,3.00
2023-04-28T21:02:03.037Z,3.50
2023-04-28T21:04:30.054Z,3.00
2023-04-28T21:06:56.687Z,3.00
2023-04-28T21:09:24.465Z,3.33
2023-04-28T21:11:51.473Z,4.00
2023-04-28T21:14:18.217Z,4.00
2023-04-28T21:16:45.140Z,2.67
2023-04-28T21:19:11.944Z,3.50
2023-04-28T21:21:38.711Z,2.50
2023-04-28T21:24:05.712Z,4.00
2023-04-28T21:26:32.530Z,2.00
2023-04-28T21:28:59.303Z,3.33
2023-04-28T21:31:26.056Z,4.67
2023-04-28T21:33:53.139Z,4.00
2023-04-28T21:36:19.794Z,3.00
2023-04-28T21:38:46.447Z,3.00
2023-04-28T21:41:13.664Z,5.00
2023-04-28T21:43:40.568Z,5.00
2023-04-28T21:46:07.421Z,3.75
2023-04-28T21:48:36.906Z,4.00
2023-04-28T21:51:03.893Z,4.00
2023-04-28T21:53:30.688Z,4.33
2023-04-28T21:55:57.395Z,4.00
2023-04-28T21:58:24.231Z,3.67
2023-04-28T22:00:51.276Z,4.00
2023-04-28T22:03:18.111Z,4.00
2023-04-28T22:05:45.326Z,5.00
2023-04-28T22:08:13.069Z,5.67
2023-04-28T22:10:39.670Z,4.50
2023-04-28T22:13:06.951Z,4.00
2023-04-28T22:15:33.814Z,3.00
2023-04-28T22:18:00.629Z,4.00
2023-04-28T22:20:27.366Z,5.00
2023-04-28T22:22:54.178Z,4.00
2023-04-28T22:25:21.781Z,4.00
2023-04-28T22:27:49.519Z,4.00
2023-04-28T22:30:16.937Z,6.00
2023-04-28T22:32:44.052Z,4.33
2023-04-28T22:35:12.296Z,3.75
2023-04-28T22:37:39.276Z,5.00
2023-04-28T22:40:07.783Z,4.00
2023-04-28T22:42:38.381Z,5.00
2023-04-28T22:45:05.932Z,4.67
2023-04-28T22:47:33.894Z,5.00
2023-04-28T22:50:03.366Z,4.00
2023-04-28T22:52:30.032Z,4.00
2023-04-28T22:54:56.882Z,4.00
2023-04-28T22:57:24.070Z,5.00
2023-04-28T22:59:50.924Z,5.00
2023-04-28T23:02:18.168Z,5.00
2023-04-28T23:04:45.458Z,6.00
2023-04-28T23:07:12.195Z,4.75
2023-04-28T23:09:39.491Z,4.33
2023-04-28T23:12:06.888Z,4.00
2023-04-28T23:14:33.598Z,5.00
2023-04-28T23:17:00.121Z,5.00
2023-04-28T23:19:26.690Z,4.67
2023-04-28T23:21:53.882Z,5.00
2023-04-28T23:24:20.526Z,4.00
2023-04-28T23:26:47.486Z,5.00
2023-04-28T23:29:14.156Z,5.00
2023-04-28T23:31:40.973Z,4.00
2023-04-28T23:34:08.395Z,5.00
2023-04-28T23:36:35.758Z,5.00
2023-04-28T23:39:02.326Z,5.00
2023-04-28T23:41:29.019Z,5.00
2023-04-28T23:43:56.303Z,5.67
2023-04-28T23:46:23.354Z,5.67
2023-04-28T23:48:50.053Z,4.00
2023-04-28T23:51:16.549Z,5.00
2023-04-28T23:53:43.370Z,4.00
2023-04-28T23:56:10.493Z,6.00
2023-04-28T23:58:38.096Z,5.00
